createdAt,value
2022-08-09T00:00:17.305Z,3.10
2022-08-09T00:02:49.674Z,3.10
2022-08-09T00:06:17.559Z,2.83
2022-08-09T00:08:32.198Z,2.90
2022-08-09T00:11:05.909Z,3.10
2022-08-09T00:13:49.941Z,2.95
2022-08-09T00:16:26.204Z,2.80
2022-08-09T00:19:10.281Z,2.60
2022-08-09T00:21:38.864Z,2.90
2022-08-09T00:24:24.295Z,2.53
2022-08-09T00:26:52.490Z,2.70
2022-08-09T00:29:39.322Z,2.90
2022-08-09T00:32:08.724Z,2.80
2022-08-09T00:34:46.343Z,3.00
2022-08-09T00:37:20.415Z,3.00
2022-08-09T00:40:12.112Z,3.38
2022-08-09T00:44:11.018Z,3.35
2022-08-09T00:45:24.931Z,2.90
2022-08-09T00:47:55.471Z,3.08
2022-08-09T00:50:25.929Z,3.15
2022-08-09T00:52:55.483Z,2.83
2022-08-09T00:56:03.343Z,3.28
2022-08-09T00:58:14.748Z,3.22
2022-08-09T01:00:53.671Z,3.10
2022-08-09T01:03:29.817Z,3.28
2022-08-09T01:06:18.050Z,3.30
2022-08-09T01:08:55.652Z,3.17
2022-08-09T01:11:32.663Z,2.53
2022-08-09T01:14:05.557Z,3.22
2022-08-09T01:16:37.697Z,2.92
2022-08-09T01:19:40.211Z,3.20
2022-08-09T01:22:24.611Z,2.90
2022-08-09T01:25:08.111Z,3.05
2022-08-09T01:27:43.006Z,2.78
2022-08-09T01:30:28.788Z,3.20
2022-08-09T01:33:02.228Z,3.15
2022-08-09T01:35:38.363Z,3.35
2022-08-09T01:38:15.401Z,3.00
2022-08-09T01:40:53.147Z,3.38
2022-08-09T01:43:42.225Z,3.05
2022-08-09T01:46:23.946Z,3.20
2022-08-09T01:48:56.912Z,2.78
2022-08-09T01:51:26.500Z,3.00
2022-08-09T01:53:58.074Z,3.22
2022-08-09T01:56:28.381Z,3.30
2022-08-09T01:58:59.849Z,3.25
2022-08-09T02:01:58.390Z,3.50
2022-08-09T02:04:21.599Z,3.83
2022-08-09T02:07:18.460Z,3.75
2022-08-09T02:10:04.190Z,3.53
2022-08-09T02:12:34.883Z,3.45
2022-08-09T02:15:15.394Z,3.17
2022-08-09T02:18:09.556Z,3.17
2022-08-09T02:20:41.705Z,3.40
2022-08-09T02:23:16.950Z,3.50
2022-08-09T02:25:52.628Z,3.08
2022-08-09T02:28:24.379Z,3.58
2022-08-09T02:31:01.218Z,3.55
2022-08-09T02:33:38.275Z,3.33
2022-08-09T02:36:26.943Z,3.78
2022-08-09T02:38:58.528Z,4.07
2022-08-09T02:41:33.606Z,3.63
2022-08-09T02:44:10.500Z,3.30
2022-08-09T02:46:52.498Z,3.75
2022-08-09T02:49:27.214Z,3.60
2022-08-09T02:52:08.550Z,3.63
2022-08-09T02:54:54.524Z,4.03
2022-08-09T02:57:26.819Z,3.95
2022-08-09T03:00:20.986Z,3.78
2022-08-09T03:03:00.169Z,3.85
2022-08-09T03:05:29.931Z,3.67
2022-08-09T03:08:05.163Z,3.33
2022-08-09T03:10:34.954Z,3.72
2022-08-09T03:13:08.536Z,4.05
2022-08-09T03:16:05.758Z,3.90
2022-08-09T03:18:31.232Z,3.63
2022-08-09T03:21:02.819Z,3.50
2022-08-09T03:23:31.744Z,3.92
2022-08-09T03:26:04.646Z,3.70
2022-08-09T03:28:34.856Z,3.85
2022-08-09T03:31:04.276Z,4.10
2022-08-09T03:33:54.345Z,3.72
2022-08-09T03:36:27.805Z,3.80
2022-08-09T03:38:57.035Z,4.00
2022-08-09T03:41:29.851Z,3.78
2022-08-09T03:44:12.987Z,3.85
2022-08-09T03:46:44.007Z,4.07
2022-08-09T03:49:18.929Z,4.25
2022-08-09T03:51:58.888Z,4.32
2022-08-09T03:54:32.680Z,4.43
2022-08-09T03:57:18.270Z,4.03
2022-08-09T03:59:54.160Z,4.15
2022-08-09T04:02:30.313Z,4.32
2022-08-09T04:05:06.677Z,4.43
2022-08-09T04:07:52.866Z,4.40
2022-08-09T04:10:29.117Z,5.00
2022-08-09T04:13:01.309Z,4.20
2022-08-09T04:16:17.912Z,4.85
2022-08-09T04:18:21.600Z,4.50
2022-08-09T04:20:51.875Z,4.90
2022-08-09T04:23:24.268Z,4.70
2022-08-09T04:25:53.608Z,4.72
2022-08-09T04:28:33.243Z,4.82
2022-08-09T04:31:09.046Z,4.88
2022-08-09T04:33:52.865Z,4.75
2022-08-09T04:36:28.464Z,4.78
2022-08-09T04:38:59.174Z,4.82
2022-08-09T04:41:33.283Z,4.80
2022-08-09T04:44:05.875Z,4.43
2022-08-09T04:46:38.236Z,3.35
2022-08-09T04:49:40.508Z,3.95
2022-08-09T04:52:21.948Z,3.90
2022-08-09T04:54:53.720Z,3.67
2022-08-09T04:57:23.976Z,3.80
2022-08-09T04:59:55.141Z,3.75
2022-08-09T05:02:24.384Z,3.30
2022-08-09T05:04:56.310Z,4.38
2022-08-09T05:07:29.224Z,4.10
2022-08-09T05:10:02.063Z,3.90
2022-08-09T05:12:33.178Z,4.18
2022-08-09T05:15:11.536Z,4.60
2022-08-09T05:18:55.101Z,4.63
2022-08-09T05:20:29.762Z,4.78
2022-08-09T05:23:53.742Z,5.40
2022-08-09T05:25:50.931Z,5.55
2022-08-09T05:28:19.965Z,5.30
2022-08-09T05:30:48.573Z,5.35
2022-08-09T05:33:20.056Z,5.65
2022-08-09T05:35:54.869Z,5.82
2022-08-09T05:38:28.039Z,5.72
2022-08-09T05:40:56.250Z,5.70
2022-08-09T05:43:24.629Z,6.40
2022-08-09T05:45:57.813Z,5.68
2022-08-09T05:48:27.848Z,5.22
2022-08-09T05:51:42.813Z,5.78
2022-08-09T05:53:57.574Z,5.07
2022-08-09T05:56:27.999Z,5.57
2022-08-09T05:58:58.567Z,5.30
2022-08-09T06:01:34.264Z,5.68
2022-08-09T06:04:12.199Z,5.28
2022-08-09T06:06:46.704Z,5.30
2022-08-09T06:09:40.669Z,5.22
2022-08-09T06:12:09.004Z,5.20
2022-08-09T06:14:37.824Z,5.20
2022-08-09T06:17:09.938Z,5.20
2022-08-09T06:19:38.853Z,4.60
2022-08-09T06:22:15.059Z,4.43
2022-08-09T06:24:45.043Z,4.75
2022-08-09T06:27:15.645Z,4.22
2022-08-09T06:29:58.598Z,4.88
2022-08-09T06:32:53.476Z,4.40
2022-08-09T06:35:21.215Z,4.18
2022-08-09T06:38:06.927Z,4.47
2022-08-09T06:40:36.761Z,4.28
2022-08-09T06:43:10.353Z,4.28
2022-08-09T06:46:07.745Z,4.68
2022-08-09T06:48:31.057Z,4.05
2022-08-09T06:51:00.166Z,3.90
2022-08-09T06:53:33.371Z,4.05
2022-08-09T06:56:09.191Z,4.03
2022-08-09T07:00:49.166Z,3.80
2022-08-09T07:01:35.584Z,3.88
2022-08-09T07:04:20.011Z,3.50
2022-08-09T07:06:53.480Z,3.67
2022-08-09T07:09:55.522Z,4.35
2022-08-09T07:12:20.147Z,3.80
2022-08-09T07:14:51.104Z,3.75
2022-08-09T07:17:21.694Z,3.80
2022-08-09T07:19:50.797Z,3.90
2022-08-09T07:22:34.840Z,4.15
2022-08-09T07:25:05.455Z,3.45
2022-08-09T07:27:42.665Z,3.42
2022-08-09T07:30:15.759Z,3.50
2022-08-09T07:32:46.362Z,3.67
2022-08-09T07:35:20.034Z,3.78
2022-08-09T07:37:50.623Z,3.40
2022-08-09T07:40:27.066Z,3.80
2022-08-09T07:43:03.593Z,3.78
2022-08-09T07:45:42.933Z,3.63
2022-08-09T07:48:25.439Z,3.28
2022-08-09T07:51:09.801Z,3.00
2022-08-09T07:54:07.528Z,3.00
2022-08-09T07:56:44.755Z,3.25
2022-08-09T07:59:33.894Z,3.08
2022-08-09T08:02:09.147Z,3.03
2022-08-09T08:04:38.868Z,2.88
2022-08-09T08:07:09.392Z,3.30
2022-08-09T08:10:10.316Z,2.90
2022-08-09T08:12:42.639Z,2.80
2022-08-09T08:15:16.770Z,3.00
2022-08-09T08:17:53.493Z,2.92
2022-08-09T08:20:29.561Z,2.80
2022-08-09T08:23:06.462Z,3.25
2022-08-09T08:25:48.390Z,2.53
2022-08-09T08:28:32.023Z,2.83
2022-08-09T08:31:14.025Z,2.50
2022-08-09T08:33:53.397Z,2.47
2022-08-09T08:36:29.052Z,2.10
2022-08-09T08:38:58.247Z,2.05
2022-08-09T08:41:50.676Z,2.22
2022-08-09T08:44:16.427Z,2.13
2022-08-09T08:47:02.580Z,2.00
2022-08-09T08:49:47.045Z,2.33
2022-08-09T08:55:08.161Z,2.20
2022-08-09T08:57:37.543Z,2.10
2022-08-09T09:00:16.798Z,2.10
2022-08-09T09:02:53.629Z,1.98
2022-08-09T09:05:32.898Z,1.95
2022-08-09T09:08:30.562Z,1.73
2022-08-09T09:11:03.733Z,1.80
2022-08-09T09:13:54.847Z,2.20
2022-08-09T09:16:29.975Z,1.90
2022-08-09T09:22:03.820Z,2.10
2022-08-09T09:24:34.916Z,1.90
2022-08-09T09:27:04.830Z,1.90
2022-08-09T09:29:58.106Z,2.00
2022-08-09T09:32:34.346Z,2.30
2022-08-09T09:35:07.519Z,2.20
2022-08-09T09:37:40.576Z,2.00
2022-08-09T09:40:11.856Z,1.98
2022-08-09T09:42:43.065Z,2.10
2022-08-09T09:45:25.764Z,1.90
2022-08-09T09:47:58.655Z,1.67
2022-08-09T09:50:50.959Z,1.83
2022-08-09T09:53:43.635Z,1.77
2022-08-09T09:56:30.843Z,1.77
2022-08-09T09:59:01.120Z,1.70
2022-08-09T10:01:31.278Z,1.67
2022-08-09T10:04:15.784Z,1.95
2022-08-09T10:06:53.954Z,2.10
2022-08-09T10:09:24.028Z,2.03
2022-08-09T10:12:12.965Z,1.73
2022-08-09T10:14:49.164Z,1.88
2022-08-09T10:17:50.487Z,2.05
2022-08-09T10:20:32.299Z,1.85
2022-08-09T10:23:17.446Z,1.98
2022-08-09T10:26:07.840Z,2.10
2022-08-09T10:28:40.063Z,2.20
2022-08-09T10:34:10.231Z,2.17
2022-08-09T10:36:46.209Z,1.88
2022-08-09T10:39:19.723Z,1.80
2022-08-09T10:41:49.790Z,2.13
2022-08-09T10:44:24.871Z,2.00
2022-08-09T10:48:20.392Z,1.90
2022-08-09T10:50:26.952Z,2.30
2022-08-09T10:53:10.533Z,2.15
2022-08-09T10:55:58.922Z,1.83
2022-08-09T10:58:33.900Z,1.85
2022-08-09T11:03:07.333Z,2.05
2022-08-09T11:04:20.037Z,2.03
2022-08-09T11:07:28.064Z,2.10
2022-08-09T11:10:16.677Z,2.00
2022-08-09T11:13:49.441Z,2.00
2022-08-09T11:16:37.203Z,1.88
2022-08-09T11:19:09.807Z,2.10
2022-08-09T11:21:57.149Z,2.03
2022-08-09T11:25:05.522Z,2.03
2022-08-09T11:28:04.069Z,2.10
2022-08-09T11:30:38.080Z,1.98
2022-08-09T11:33:15.392Z,1.85
2022-08-09T11:35:49.615Z,2.20
2022-08-09T11:38:22.293Z,1.95
2022-08-09T11:40:57.523Z,2.22
2022-08-09T11:43:42.888Z,2.50
2022-08-09T11:46:12.824Z,2.13
2022-08-09T11:48:56.157Z,2.08
2022-08-09T11:53:03.223Z,1.92
2022-08-09T11:54:28.283Z,2.00
2022-08-09T11:57:47.914Z,2.55
2022-08-09T12:00:27.274Z,1.95
2022-08-09T12:02:59.026Z,1.88
2022-08-09T12:05:39.579Z,2.00
2022-08-09T12:08:12.402Z,2.00
2022-08-09T12:10:49.704Z,1.90
2022-08-09T12:14:10.483Z,2.05
2022-08-09T12:16:29.228Z,2.10
2022-08-09T12:19:08.545Z,1.88
2022-08-09T12:21:50.671Z,1.67
2022-08-09T12:24:24.903Z,1.83
2022-08-09T12:29:09.869Z,1.60
2022-08-09T12:30:01.541Z,1.73
2022-08-09T12:32:32.822Z,1.88
2022-08-09T12:35:10.919Z,1.77
2022-08-09T12:37:50.741Z,1.77
2022-08-09T12:40:22.992Z,1.70
2022-08-09T12:42:52.860Z,1.70
2022-08-09T12:45:33.520Z,2.15
2022-08-09T12:48:20.488Z,1.58
2022-08-09T12:50:58.126Z,1.83
2022-08-09T12:53:37.124Z,1.70
2022-08-09T12:56:14.198Z,1.67
2022-08-09T12:59:08.690Z,1.58
2022-08-09T13:01:47.019Z,1.70
2022-08-09T13:04:33.215Z,1.50
2022-08-09T13:07:14.653Z,1.67
2022-08-09T13:09:43.474Z,1.77
2022-08-09T13:12:22.106Z,1.70
2022-08-09T13:14:54.156Z,1.50
2022-08-09T13:18:02.819Z,1.67
2022-08-09T13:20:20.261Z,1.40
2022-08-09T13:23:06.113Z,1.80
2022-08-09T13:25:54.811Z,1.70
2022-08-09T13:28:34.627Z,1.60
2022-08-09T13:32:14.481Z,1.65
2022-08-09T13:33:56.487Z,1.70
2022-08-09T13:36:41.769Z,1.30
2022-08-09T13:41:21.278Z,1.40
2022-08-09T13:42:03.221Z,1.92
2022-08-09T13:44:33.022Z,1.70
2022-08-09T13:47:26.850Z,1.90
2022-08-09T13:49:57.752Z,1.67
2022-08-09T13:52:29.696Z,1.60
2022-08-09T13:55:04.671Z,1.55
2022-08-09T13:57:39.301Z,1.70
2022-08-09T14:00:12.906Z,1.88
2022-08-09T14:03:02.297Z,1.40
2022-08-09T14:06:00.331Z,1.70
2022-08-09T14:08:19.536Z,2.10
2022-08-09T14:10:53.097Z,1.85
2022-08-09T14:14:15.970Z,1.60
2022-08-09T14:16:14.954Z,1.60
2022-08-09T14:18:49.503Z,1.80
2022-08-09T14:21:20.505Z,1.88
2022-08-09T14:23:54.857Z,1.70
2022-08-09T14:26:32.165Z,1.58
2022-08-09T14:29:02.964Z,1.70
2022-08-09T14:31:36.264Z,1.70
2022-08-09T14:34:31.564Z,1.52
2022-08-09T14:37:06.733Z,1.67
2022-08-09T14:39:45.851Z,1.80
2022-08-09T14:42:30.082Z,1.50
2022-08-09T14:46:38.826Z,1.60
2022-08-09T14:47:58.069Z,1.80
2022-08-09T14:50:29.339Z,1.80
2022-08-09T14:52:58.830Z,1.65
2022-08-09T14:55:29.081Z,1.67
2022-08-09T14:58:03.442Z,1.50
2022-08-09T15:00:33.353Z,1.52
2022-08-09T15:03:03.696Z,1.77
2022-08-09T15:05:32.685Z,1.60
2022-08-09T15:08:00.914Z,1.40
2022-08-09T15:10:31.637Z,1.60
2022-08-09T15:13:03.117Z,1.33
2022-08-09T15:15:34.323Z,1.50
2022-08-09T15:18:12.361Z,1.40
2022-08-09T15:21:56.349Z,1.60
2022-08-09T15:24:02.710Z,1.50
2022-08-09T15:26:31.476Z,1.70
2022-08-09T15:29:04.795Z,1.50
2022-08-09T15:31:41.385Z,1.40
2022-08-09T15:34:31.519Z,1.60
2022-08-09T15:37:01.075Z,1.38
2022-08-09T15:39:43.686Z,1.55
2022-08-09T15:42:21.770Z,1.42
2022-08-09T15:44:51.643Z,1.60
2022-08-09T15:47:21.775Z,1.40
2022-08-09T15:50:04.095Z,1.60
2022-08-09T15:52:35.880Z,1.67
2022-08-09T15:55:05.441Z,1.52
2022-08-09T15:57:43.901Z,1.85
2022-08-09T16:00:25.385Z,1.80
2022-08-09T16:02:56.909Z,2.03
2022-08-09T16:05:47.636Z,1.65
2022-08-09T16:08:30.905Z,1.88
2022-08-09T16:11:01.570Z,1.55
2022-08-09T16:14:04.057Z,1.33
2022-08-09T16:16:28.117Z,1.45
2022-08-09T16:18:56.651Z,1.50
2022-08-09T16:21:26.273Z,1.58
2022-08-09T16:23:58.412Z,1.80
2022-08-09T16:26:35.186Z,1.60
2022-08-09T16:29:11.650Z,1.60
2022-08-09T16:32:18.709Z,1.88
2022-08-09T16:34:55.792Z,1.85
2022-08-09T16:37:55.510Z,1.55
2022-08-09T16:40:13.979Z,1.67
2022-08-09T16:42:49.054Z,1.98
2022-08-09T16:45:19.828Z,1.67
2022-08-09T16:48:38.244Z,1.92
2022-08-09T16:50:40.084Z,1.50
2022-08-09T16:53:18.025Z,1.67
2022-08-09T16:56:00.031Z,1.35
2022-08-09T16:58:30.906Z,1.67
2022-08-09T17:01:05.588Z,1.90
2022-08-09T17:03:36.263Z,1.80
2022-08-09T17:06:28.235Z,1.90
2022-08-09T17:08:59.977Z,1.70
2022-08-09T17:11:41.044Z,1.90
2022-08-09T17:14:25.946Z,2.15
2022-08-09T17:16:59.767Z,2.20
2022-08-09T17:19:47.235Z,2.20
2022-08-09T17:22:24.027Z,2.10
2022-08-09T17:25:03.032Z,2.70
2022-08-09T17:27:34.218Z,3.78
2022-08-09T17:30:12.927Z,2.80
2022-08-09T17:32:44.411Z,2.65
2022-08-09T17:35:16.438Z,2.67
2022-08-09T17:38:11.705Z,2.38
2022-08-09T17:40:35.782Z,2.15
2022-08-09T17:43:32.232Z,2.58
2022-08-09T17:46:03.580Z,2.17
2022-08-09T17:48:38.786Z,2.80
2022-08-09T17:51:18.582Z,2.17
2022-08-09T17:53:52.815Z,2.15
2022-08-09T17:56:27.333Z,2.10
2022-08-09T17:58:59.444Z,2.38
2022-08-09T18:01:58.225Z,2.13
2022-08-09T18:04:19.486Z,2.20
2022-08-09T18:06:54.332Z,2.20
2022-08-09T18:09:23.459Z,2.70
2022-08-09T18:12:15.157Z,2.00
2022-08-09T18:14:50.110Z,2.13
2022-08-09T18:17:27.046Z,2.10
2022-08-09T18:20:58.802Z,1.92
2022-08-09T18:23:05.032Z,2.00
2022-08-09T18:25:52.944Z,1.90
2022-08-09T18:30:42.269Z,1.80
2022-08-09T18:31:25.169Z,2.22
2022-08-09T18:34:05.023Z,2.03
2022-08-09T18:36:36.178Z,2.50
2022-08-09T18:39:11.186Z,2.38
2022-08-09T18:41:52.728Z,2.30
2022-08-09T18:44:25.535Z,2.40
2022-08-09T18:47:07.566Z,2.22
2022-08-09T18:49:43.204Z,2.50
2022-08-09T18:52:18.876Z,2.83
2022-08-09T18:54:55.961Z,2.00
2022-08-09T18:57:43.079Z,2.10
2022-08-09T19:00:16.717Z,2.50
2022-08-09T19:02:49.037Z,2.20
2022-08-09T19:05:49.056Z,2.25
2022-08-09T19:08:18.470Z,2.10
2022-08-09T19:10:50.688Z,2.30
2022-08-09T19:13:22.168Z,2.28
2022-08-09T19:16:06.603Z,1.90
2022-08-09T19:18:42.288Z,2.40
2022-08-09T19:21:15.008Z,2.25
2022-08-09T19:24:33.555Z,2.42
2022-08-09T19:26:36.011Z,2.38
2022-08-09T19:29:15.265Z,2.60
2022-08-09T19:31:51.144Z,2.50
2022-08-09T19:34:24.537Z,2.60
2022-08-09T19:36:54.761Z,2.10
2022-08-09T19:39:43.144Z,2.53
2022-08-09T19:42:19.199Z,2.30
2022-08-09T19:44:50.569Z,2.35
2022-08-09T19:47:23.451Z,2.65
2022-08-09T19:50:09.219Z,2.60
2022-08-09T19:52:49.263Z,2.35
2022-08-09T19:55:31.133Z,2.22
2022-08-09T19:58:16.307Z,2.25
2022-08-09T20:00:46.592Z,2.55
2022-08-09T20:04:18.608Z,2.00
2022-08-09T20:06:10.396Z,2.25
2022-08-09T20:08:51.696Z,2.60
2022-08-09T20:11:26.153Z,2.35
2022-08-09T20:13:57.328Z,2.22
2022-08-09T20:16:35.459Z,2.20
2022-08-09T20:19:47.880Z,2.35
2022-08-09T20:21:59.966Z,2.15
2022-08-09T20:24:29.822Z,2.60
2022-08-09T20:27:05.650Z,2.50
2022-08-09T20:29:39.428Z,2.50
2022-08-09T20:32:28.624Z,2.50
2022-08-09T20:34:58.621Z,2.83
2022-08-09T20:37:37.882Z,2.17
2022-08-09T20:40:26.351Z,2.55
2022-08-09T20:42:59.736Z,2.40
2022-08-09T20:46:00.900Z,2.97
2022-08-09T20:48:38.807Z,2.30
2022-08-09T20:51:07.978Z,2.55
2022-08-09T20:53:48.672Z,2.40
2022-08-09T20:56:20.939Z,2.50
2022-08-09T20:58:54.221Z,2.40
2022-08-09T21:01:35.377Z,2.35
2022-08-09T21:05:54.685Z,2.28
2022-08-09T21:07:12.079Z,2.17
2022-08-09T21:09:55.698Z,2.50
2022-08-09T21:15:17.152Z,2.17
2022-08-09T21:18:10.996Z,2.80
2022-08-09T21:20:43.367Z,2.78
2022-08-09T21:23:18.653Z,2.30
2022-08-09T21:25:59.887Z,2.53
2022-08-09T21:28:34.635Z,2.50
2022-08-09T21:31:17.668Z,2.45
2022-08-09T21:33:53.199Z,2.40
2022-08-09T21:36:30.537Z,2.38
2022-08-09T21:38:59.967Z,2.30
2022-08-09T21:41:59.865Z,2.40
2022-08-09T21:44:33.970Z,2.38
2022-08-09T21:47:07.741Z,2.22
2022-08-09T21:49:42.627Z,2.40
2022-08-09T21:52:17.786Z,2.33
2022-08-09T21:54:49.456Z,2.30
2022-08-09T21:57:37.034Z,2.33
2022-08-09T22:00:13.848Z,2.35
2022-08-09T22:02:44.233Z,2.10
2022-08-09T22:05:35.410Z,2.58
2022-08-09T22:08:05.472Z,2.08
2022-08-09T22:10:34.067Z,2.55
2022-08-09T22:13:07.663Z,2.35
2022-08-09T22:15:40.544Z,2.40
2022-08-09T22:18:12.023Z,2.20
2022-08-09T22:20:42.390Z,2.20
2022-08-09T22:23:13.326Z,2.33
2022-08-09T22:26:05.709Z,2.33
2022-08-09T22:28:33.287Z,2.30
2022-08-09T22:31:03.058Z,2.42
2022-08-09T22:33:37.520Z,2.83
2022-08-09T22:36:19.444Z,2.70
2022-08-09T22:38:50.280Z,2.20
2022-08-09T22:41:19.410Z,2.72
2022-08-09T22:44:02.190Z,2.50
2022-08-09T22:48:16.874Z,2.30
2022-08-09T22:49:21.845Z,2.78
2022-08-09T22:51:57.022Z,3.00
2022-08-09T22:54:27.832Z,2.58
2022-08-09T22:56:58.757Z,2.35
2022-08-09T22:59:57.246Z,2.47
2022-08-09T23:02:20.385Z,2.78
2022-08-09T23:04:53.958Z,2.45
2022-08-09T23:08:21.962Z,2.35
2022-08-09T23:10:32.569Z,2.47
2022-08-09T23:13:01.558Z,2.88
2022-08-09T23:15:30.859Z,2.58
2022-08-09T23:17:59.288Z,2.25
2022-08-09T23:20:28.702Z,2.55
2022-08-09T23:22:58.677Z,2.67
2022-08-09T23:25:27.080Z,2.72
2022-08-09T23:28:00.544Z,2.97
2022-08-09T23:30:51.297Z,2.53
2022-08-09T23:33:22.234Z,2.55
2022-08-09T23:36:06.998Z,2.38
2022-08-09T23:38:49.243Z,2.63
2022-08-09T23:41:27.496Z,2.80
2022-08-09T23:43:56.644Z,2.80
2022-08-09T23:46:24.997Z,3.00
2022-08-09T23:48:53.345Z,3.13
2022-08-09T23:51:22.185Z,2.83
2022-08-09T23:53:52.327Z,2.80
2022-08-09T23:56:52.572Z,3.10
2022-08-09T23:59:09.719Z,3.20
